Weather at Torre Bosques Heliport

Public forecast

Using degrees Celsius for public forecast. Weather courtesy of forecast.io.

Closest aviation weather report (METAR) to Torre Bosques Heliport

Closest report is Licenciado Benito Juarez International Airport, 12.2 nm (22.5 km) E. Retrieved 2020/10/21 01:43 UTC (9 minutes ago):

MMMX 210143Z 03012KT 12SM FEW080 19/08 A3024 NOSIG RMK 8/030 SC

Closest aviation forecast (TAF) to Torre Bosques Heliport

Closest forecast is Licenciado Benito Juarez International Airport, 12.2 nm (22.5 km) E. Retrieved 2020-10-21 00:35 UTC (1 hour ago):

TAF MMMX 202228Z 2100/2206 04006G16KT P6SM SCT020CB SCT080 BKN220 TN13/2112Z TX25/2121Z FM210300 06005KT P6SM SCT220 TEMPO 2111/2115 4SM HZ BR FM211700 34005KT 6SM HZ SCT220 FM212100 03012KT P6SM SCT025 SCT080 BKN220 FM220300 04006KT P6SM SCT020 BKN220